sensor_id;sensor_type;location;lat;lon;timestamp;pressure;altitude;pressure_sealevel;temperature;humidity
35331;BME280;21441;52.190;20.910;2022-10-31T00:00:21;64926.59;;;-146.25;nan
35331;BME280;21441;52.190;20.910;2022-10-31T00:03:08;64926.59;;;-146.25;nan
35331;BME280;21441;52.190;20.910;2022-10-31T00:05:35;64926.59;;;-146.25;nan
35331;BME280;21441;52.190;20.910;2022-10-31T00:08:02;64926.59;;;-146.25;nan
35331;BME280;21441;52.190;20.910;2022-10-31T00:10:30;64926.59;;;-146.25;nan
35331;BME280;21441;52.190;20.910;2022-10-31T00:12:56;64926.59;;;-146.25;nan
35331;BME280;21441;52.190;20.910;2022-10-31T00:15:23;64926.59;;;-146.25;nan
35331;BME280;21441;52.190;20.910;2022-10-31T00:17:50;64926.59;;;-146.25;nan
35331;BME280;21441;52.190;20.910;2022-10-31T00:20:17;64926.59;;;-146.25;nan
35331;BME280;21441;52.190;20.910;2022-10-31T00:22:43;64926.59;;;-146.25;nan
35331;BME280;21441;52.190;20.910;2022-10-31T00:25:10;64926.59;;;-146.25;nan
35331;BME280;21441;52.190;20.910;2022-10-31T00:27:38;64926.59;;;-146.25;nan
35331;BME280;21441;52.190;20.910;2022-10-31T00:30:05;64926.59;;;-146.25;nan
35331;BME280;21441;52.190;20.910;2022-10-31T00:32:32;64926.59;;;-146.25;nan
35331;BME280;21441;52.190;20.910;2022-10-31T00:34:59;64926.59;;;-146.25;nan
35331;BME280;21441;52.190;20.910;2022-10-31T00:37:26;64926.59;;;-146.25;nan
35331;BME280;21441;52.190;20.910;2022-10-31T00:39:53;64926.59;;;-146.25;nan
35331;BME280;21441;52.190;20.910;2022-10-31T00:42:19;64926.59;;;-146.25;nan
35331;BME280;21441;52.190;20.910;2022-10-31T00:44:48;64926.59;;;-146.25;nan
35331;BME280;21441;52.190;20.910;2022-10-31T00:47:14;64926.59;;;-146.25;nan
35331;BME280;21441;52.190;20.910;2022-10-31T00:49:41;64926.59;;;-146.25;nan
35331;BME280;21441;52.190;20.910;2022-10-31T00:52:08;64926.59;;;-146.25;nan
35331;BME280;21441;52.190;20.910;2022-10-31T00:54:35;64926.59;;;-146.25;nan
35331;BME280;21441;52.190;20.910;2022-10-31T00:57:01;64926.59;;;-146.25;nan
35331;BME280;21441;52.190;20.910;2022-10-31T00:59:28;64926.59;;;-146.25;nan
35331;BME280;21441;52.190;20.910;2022-10-31T01:01:56;64926.59;;;-146.25;nan
35331;BME280;21441;52.190;20.910;2022-10-31T01:04:23;64926.59;;;-146.25;nan
35331;BME280;21441;52.190;20.910;2022-10-31T01:06:50;77491.25;;;-146.25;nan
35331;BME280;21441;52.190;20.910;2022-10-31T01:09:17;64926.59;;;-144.94;100.00
35331;BME280;21441;52.190;20.910;2022-10-31T01:11:43;64926.59;;;-146.25;nan
35331;BME280;21441;52.190;20.910;2022-10-31T01:14:10;64926.59;;;-146.25;nan
35331;BME280;21441;52.190;20.910;2022-10-31T01:16:37;64926.59;;;-146.25;nan
35331;BME280;21441;52.190;20.910;2022-10-31T01:19:05;64926.59;;;-146.25;nan
35331;BME280;21441;52.190;20.910;2022-10-31T01:21:32;64926.59;;;-146.25;nan
35331;BME280;21441;52.190;20.910;2022-10-31T01:23:59;64926.59;;;-146.25;nan
35331;BME280;21441;52.190;20.910;2022-10-31T01:26:27;64926.59;;;-146.25;nan
35331;BME280;21441;52.190;20.910;2022-10-31T01:28:56;64926.59;;;-146.25;nan
35331;BME280;21441;52.190;20.910;2022-10-31T01:31:24;64926.59;;;-146.25;nan
35331;BME280;21441;52.190;20.910;2022-10-31T01:33:51;64926.59;;;-146.25;nan
35331;BME280;21441;52.190;20.910;2022-10-31T01:36:21;64926.59;;;-146.25;nan
35331;BME280;21441;52.190;20.910;2022-10-31T01:38:48;64926.59;;;-146.25;nan
35331;BME280;21441;52.190;20.910;2022-10-31T01:41:16;64926.59;;;-146.25;nan
35331;BME280;21441;52.190;20.910;2022-10-31T01:43:45;64926.59;;;-146.25;nan
35331;BME280;21441;52.190;20.910;2022-10-31T01:46:12;64926.59;;;-146.25;nan
35331;BME280;21441;52.190;20.910;2022-10-31T01:48:39;64926.59;;;-146.25;nan
35331;BME280;21441;52.190;20.910;2022-10-31T01:51:07;64926.59;;;-146.25;nan
35331;BME280;21441;52.190;20.910;2022-10-31T01:53:37;64926.59;;;-146.25;nan
35331;BME280;21441;52.190;20.910;2022-10-31T01:56:04;64926.59;;;-146.25;nan
35331;BME280;21441;52.190;20.910;2022-10-31T01:58:31;64926.59;;;-146.25;nan
35331;BME280;21441;52.190;20.910;2022-10-31T02:00:59;64926.59;;;-146.25;nan
35331;BME280;21441;52.190;20.910;2022-10-31T02:03:26;64926.59;;;-146.25;nan
35331;BME280;21441;52.190;20.910;2022-10-31T02:05:53;64926.59;;;-146.25;nan
35331;BME280;21441;52.190;20.910;2022-10-31T02:08:21;64926.59;;;-146.25;nan
35331;BME280;21441;52.190;20.910;2022-10-31T02:10:51;64926.59;;;-146.25;nan
35331;BME280;21441;52.190;20.910;2022-10-31T02:13:18;64926.59;;;-146.25;nan
35331;BME280;21441;52.190;20.910;2022-10-31T02:15:47;64926.59;;;-146.25;nan
35331;BME280;21441;52.190;20.910;2022-10-31T02:18:16;64926.59;;;-146.25;nan
35331;BME280;21441;52.190;20.910;2022-10-31T02:20:46;64926.59;;;-146.25;nan
35331;BME280;21441;52.190;20.910;2022-10-31T02:23:20;64926.59;;;-146.25;nan
35331;BME280;21441;52.190;20.910;2022-10-31T02:26:06;64926.59;;;-146.25;nan
35331;BME280;21441;52.190;20.910;2022-10-31T02:28:46;64926.59;;;-146.25;nan
35331;BME280;21441;52.190;20.910;2022-10-31T02:31:22;64926.59;;;-146.25;nan
35331;BME280;21441;52.190;20.910;2022-10-31T02:33:53;64926.59;;;-146.25;nan
35331;BME280;21441;52.190;20.910;2022-10-31T02:36:23;64926.59;;;-146.25;nan
35331;BME280;21441;52.190;20.910;2022-10-31T02:38:55;64926.59;;;-146.25;nan
35331;BME280;21441;52.190;20.910;2022-10-31T02:41:26;64926.59;;;-146.25;nan
35331;BME280;21441;52.190;20.910;2022-10-31T02:43:58;64926.59;;;-146.25;nan
35331;BME280;21441;52.190;20.910;2022-10-31T02:46:30;64926.59;;;-146.25;nan
35331;BME280;21441;52.190;20.910;2022-10-31T02:49:00;64926.59;;;-146.25;nan
35331;BME280;21441;52.190;20.910;2022-10-31T02:51:30;64926.59;;;-146.25;nan
35331;BME280;21441;52.190;20.910;2022-10-31T02:53:57;64926.59;;;-146.25;nan
35331;BME280;21441;52.190;20.910;2022-10-31T02:56:24;64926.59;;;-146.25;nan
35331;BME280;21441;52.190;20.910;2022-10-31T02:58:51;64926.59;;;-146.25;nan
35331;BME280;21441;52.190;20.910;2022-10-31T03:01:33;64926.59;;;-146.25;nan
35331;BME280;21441;52.190;20.910;2022-10-31T03:04:07;64926.59;;;-146.25;nan
35331;BME280;21441;52.190;20.910;2022-10-31T03:06:39;64926.59;;;-146.25;nan
35331;BME280;21441;52.190;20.910;2022-10-31T03:09:09;64926.59;;;-146.25;nan
35331;BME280;21441;52.190;20.910;2022-10-31T03:11:41;64926.59;;;-146.25;nan
35331;BME280;21441;52.190;20.910;2022-10-31T03:14:10;64926.59;;;-146.25;nan
35331;BME280;21441;52.190;20.910;2022-10-31T03:16:40;64926.59;;;-146.25;nan
35331;BME280;21441;52.190;20.910;2022-10-31T03:19:12;64926.59;;;-146.25;nan
35331;BME280;21441;52.190;20.910;2022-10-31T03:21:42;64926.59;;;-146.25;nan
35331;BME280;21441;52.190;20.910;2022-10-31T03:24:10;64926.59;;;-146.25;nan
35331;BME280;21441;52.190;20.910;2022-10-31T03:26:38;64926.59;;;-146.25;nan
35331;BME280;21441;52.190;20.910;2022-10-31T03:29:08;64926.59;;;-146.25;nan
35331;BME280;21441;52.190;20.910;2022-10-31T03:31:38;64926.59;;;-146.25;nan
35331;BME280;21441;52.190;20.910;2022-10-31T03:34:09;64926.59;;;-146.25;nan
35331;BME280;21441;52.190;20.910;2022-10-31T03:36:36;64926.59;;;-146.25;nan
35331;BME280;21441;52.190;20.910;2022-10-31T03:39:05;64926.59;;;-146.25;nan
35331;BME280;21441;52.190;20.910;2022-10-31T03:41:34;64926.59;;;-146.25;nan
35331;BME280;21441;52.190;20.910;2022-10-31T03:44:04;64926.59;;;-146.25;nan
35331;BME280;21441;52.190;20.910;2022-10-31T03:46:34;64926.59;;;-146.25;nan
35331;BME280;21441;52.190;20.910;2022-10-31T03:49:01;64926.59;;;-146.25;nan
35331;BME280;21441;52.190;20.910;2022-10-31T03:51:30;64926.59;;;-146.25;nan
35331;BME280;21441;52.190;20.910;2022-10-31T03:54:03;64926.59;;;-146.25;nan
35331;BME280;21441;52.190;20.910;2022-10-31T03:56:33;64926.59;;;-146.25;nan
35331;BME280;21441;52.190;20.910;2022-10-31T03:59:02;64926.59;;;-146.25;nan
35331;BME280;21441;52.190;20.910;2022-10-31T04:01:32;64926.59;;;-146.25;nan
35331;BME280;21441;52.190;20.910;2022-10-31T04:04:03;64926.59;;;-146.25;nan
35331;BME280;21441;52.190;20.910;2022-10-31T04:06:32;64926.59;;;-146.25;nan
35331;BME280;21441;52.190;20.910;2022-10-31T04:09:02;64926.59;;;-146.25;100.00
35331;BME280;21441;52.190;20.910;2022-10-31T04:11:31;64926.59;;;-146.25;nan
35331;BME280;21441;52.190;20.910;2022-10-31T04:14:01;64926.59;;;-146.25;nan
35331;BME280;21441;52.190;20.910;2022-10-31T04:16:28;64926.59;;;-146.25;nan
35331;BME280;21441;52.190;20.910;2022-10-31T04:18:55;64926.59;;;-146.25;nan
35331;BME280;21441;52.190;20.910;2022-10-31T04:21:26;64926.59;;;-146.25;nan
35331;BME280;21441;52.190;20.910;2022-10-31T04:23:54;64926.59;;;-146.25;nan
35331;BME280;21441;52.190;20.910;2022-10-31T04:26:21;64926.59;;;-146.25;100.00
35331;BME280;21441;52.190;20.910;2022-10-31T04:28:48;64926.59;;;-146.25;nan
35331;BME280;21441;52.190;20.910;2022-10-31T04:31:15;64926.59;;;-146.25;nan
35331;BME280;21441;52.190;20.910;2022-10-31T04:33:41;64926.59;;;-146.25;nan
35331;BME280;21441;52.190;20.910;2022-10-31T04:36:08;64926.59;;;-146.25;nan
35331;BME280;21441;52.190;20.910;2022-10-31T04:38:36;64926.59;;;-146.25;nan
35331;BME280;21441;52.190;20.910;2022-10-31T04:41:04;64926.59;;;-146.25;nan
35331;BME280;21441;52.190;20.910;2022-10-31T04:43:31;64926.59;;;-146.25;nan
35331;BME280;21441;52.190;20.910;2022-10-31T04:45:57;64926.59;;;-146.25;nan
35331;BME280;21441;52.190;20.910;2022-10-31T04:48:24;64926.59;;;-146.25;nan
35331;BME280;21441;52.190;20.910;2022-10-31T04:50:51;64926.59;;;-146.25;nan
35331;BME280;21441;52.190;20.910;2022-10-31T04:53:17;64926.59;;;-146.25;nan
35331;BME280;21441;52.190;20.910;2022-10-31T04:55:44;64926.59;;;-146.25;nan
35331;BME280;21441;52.190;20.910;2022-10-31T04:58:12;119315.66;;;-146.25;nan
35331;BME280;21441;52.190;20.910;2022-10-31T05:00:39;64926.59;;;-146.25;nan
35331;BME280;21441;52.190;20.910;2022-10-31T05:03:06;64926.59;;;-146.25;nan
35331;BME280;21441;52.190;20.910;2022-10-31T05:05:32;64926.59;;;-146.25;nan
35331;BME280;21441;52.190;20.910;2022-10-31T05:07:59;64926.59;;;-146.25;nan
35331;BME280;21441;52.190;20.910;2022-10-31T05:10:27;64926.59;;;-146.25;nan
35331;BME280;21441;52.190;20.910;2022-10-31T05:12:55;64926.59;;;-146.25;nan
35331;BME280;21441;52.190;20.910;2022-10-31T05:15:23;64926.59;;;-146.25;nan
35331;BME280;21441;52.190;20.910;2022-10-31T05:17:51;64926.59;;;-146.25;nan
35331;BME280;21441;52.190;20.910;2022-10-31T05:20:18;64926.59;;;-146.25;nan
35331;BME280;21441;52.190;20.910;2022-10-31T05:22:46;64926.59;;;-146.25;nan
35331;BME280;21441;52.190;20.910;2022-10-31T05:25:14;64926.59;;;-146.25;nan
35331;BME280;21441;52.190;20.910;2022-10-31T05:27:41;64926.59;;;-146.25;nan
35331;BME280;21441;52.190;20.910;2022-10-31T05:30:08;64926.59;;;-146.25;nan
35331;BME280;21441;52.190;20.910;2022-10-31T05:32:39;64926.59;;;-146.25;nan
35331;BME280;21441;52.190;20.910;2022-10-31T05:35:07;64926.59;;;-146.25;nan
35331;BME280;21441;52.190;20.910;2022-10-31T05:37:34;64926.59;;;-146.25;nan
35331;BME280;21441;52.190;20.910;2022-10-31T05:40:02;64926.59;;;-146.25;nan
35331;BME280;21441;52.190;20.910;2022-10-31T05:42:29;64926.59;;;-146.25;0.00
35331;BME280;21441;52.190;20.910;2022-10-31T05:44:56;64926.59;;;-146.25;nan
35331;BME280;21441;52.190;20.910;2022-10-31T05:47:22;64926.59;;;-146.25;nan
35331;BME280;21441;52.190;20.910;2022-10-31T05:49:51;64926.59;;;-146.25;nan
35331;BME280;21441;52.190;20.910;2022-10-31T05:52:17;64926.59;;;-146.25;nan
35331;BME280;21441;52.190;20.910;2022-10-31T05:54:45;64926.59;;;-146.25;nan
35331;BME280;21441;52.190;20.910;2022-10-31T05:57:11;64926.59;;;-146.25;nan
35331;BME280;21441;52.190;20.910;2022-10-31T05:59:38;64926.59;;;-146.25;nan
35331;BME280;21441;52.190;20.910;2022-10-31T06:02:05;64926.59;;;-146.25;nan
35331;BME280;21441;52.190;20.910;2022-10-31T06:04:32;64926.59;;;-146.25;nan
35331;BME280;21441;52.190;20.910;2022-10-31T06:07:00;64926.59;;;-146.25;nan
35331;BME280;21441;52.190;20.910;2022-10-31T06:09:27;64926.59;;;-146.25;nan
35331;BME280;21441;52.190;20.910;2022-10-31T06:11:53;64926.59;;;-146.25;nan
35331;BME280;21441;52.190;20.910;2022-10-31T06:14:20;64926.59;;;-146.25;nan
35331;BME280;21441;52.190;20.910;2022-10-31T06:16:46;77628.13;;;-146.25;nan
35331;BME280;21441;52.190;20.910;2022-10-31T06:19:13;64926.59;;;-146.25;nan
35331;BME280;21441;52.190;20.910;2022-10-31T06:21:40;64926.59;;;-146.25;nan
35331;BME280;21441;52.190;20.910;2022-10-31T06:24:09;64926.59;;;-146.25;nan
35331;BME280;21441;52.190;20.910;2022-10-31T06:26:35;64926.59;;;-146.25;nan
35331;BME280;21441;52.190;20.910;2022-10-31T06:29:02;64926.59;;;-146.25;nan
35331;BME280;21441;52.190;20.910;2022-10-31T06:31:29;64926.59;;;-146.25;nan
35331;BME280;21441;52.190;20.910;2022-10-31T06:33:56;64926.59;;;-146.25;nan
35331;BME280;21441;52.190;20.910;2022-10-31T06:36:22;64926.59;;;-146.25;nan
35331;BME280;21441;52.190;20.910;2022-10-31T06:38:49;64926.59;;;-146.25;nan
35331;BME280;21441;52.190;20.910;2022-10-31T06:41:17;64926.59;;;-146.25;nan
35331;BME280;21441;52.190;20.910;2022-10-31T06:43:45;64926.59;;;-146.25;nan
35331;BME280;21441;52.190;20.910;2022-10-31T06:46:12;64926.59;;;-146.25;nan
35331;BME280;21441;52.190;20.910;2022-10-31T06:48:39;64926.59;;;-146.25;nan
35331;BME280;21441;52.190;20.910;2022-10-31T06:51:06;64926.59;;;-146.25;nan
35331;BME280;21441;52.190;20.910;2022-10-31T06:53:33;64926.59;;;-146.25;nan
35331;BME280;21441;52.190;20.910;2022-10-31T06:56:00;64926.59;;;-146.25;nan
35331;BME280;21441;52.190;20.910;2022-10-31T06:58:28;64926.59;;;-146.25;nan
35331;BME280;21441;52.190;20.910;2022-10-31T07:00:55;64926.59;;;-146.25;nan
35331;BME280;21441;52.190;20.910;2022-10-31T07:03:21;119315.66;;;-146.25;nan
35331;BME280;21441;52.190;20.910;2022-10-31T07:05:48;64926.59;;;-146.25;nan
35331;BME280;21441;52.190;20.910;2022-10-31T07:08:15;64926.59;;;-146.25;nan
35331;BME280;21441;52.190;20.910;2022-10-31T07:10:42;64926.59;;;-146.25;nan
35331;BME280;21441;52.190;20.910;2022-10-31T07:13:10;64926.59;;;-146.25;nan
35331;BME280;21441;52.190;20.910;2022-10-31T07:15:39;64926.59;;;-146.25;nan
35331;BME280;21441;52.190;20.910;2022-10-31T07:18:06;64926.59;;;-146.25;nan
35331;BME280;21441;52.190;20.910;2022-10-31T07:20:34;64926.59;;;-146.25;nan
35331;BME280;21441;52.190;20.910;2022-10-31T07:23:01;64926.59;;;-146.25;nan
35331;BME280;21441;52.190;20.910;2022-10-31T07:25:27;77489.19;;;-146.25;nan
35331;BME280;21441;52.190;20.910;2022-10-31T07:27:54;64926.59;;;-146.25;nan
35331;BME280;21441;52.190;20.910;2022-10-31T07:30:21;64926.59;;;-146.25;nan
35331;BME280;21441;52.190;20.910;2022-10-31T07:32:49;64926.59;;;-146.25;nan
35331;BME280;21441;52.190;20.910;2022-10-31T07:35:17;64926.59;;;-146.25;nan
35331;BME280;21441;52.190;20.910;2022-10-31T07:37:44;64926.59;;;-146.25;nan
35331;BME280;21441;52.190;20.910;2022-10-31T07:40:11;64926.59;;;-146.25;nan
35331;BME280;21441;52.190;20.910;2022-10-31T07:42:38;64926.59;;;-146.25;nan
35331;BME280;21441;52.190;20.910;2022-10-31T07:45:07;64926.59;;;-146.25;nan
35331;BME280;21441;52.190;20.910;2022-10-31T07:47:37;64926.59;;;-146.25;nan
35331;BME280;21441;52.190;20.910;2022-10-31T07:50:06;64926.59;;;-146.25;nan
35331;BME280;21441;52.190;20.910;2022-10-31T07:52:33;64926.59;;;-146.25;nan
35331;BME280;21441;52.190;20.910;2022-10-31T07:55:00;64926.59;;;-146.25;nan
35331;BME280;21441;52.190;20.910;2022-10-31T07:57:27;64926.59;;;-146.25;nan
35331;BME280;21441;52.190;20.910;2022-10-31T07:59:53;64926.59;;;-146.25;nan
35331;BME280;21441;52.190;20.910;2022-10-31T08:02:20;64926.59;;;-146.25;nan
35331;BME280;21441;52.190;20.910;2022-10-31T08:04:47;64926.59;;;-146.25;nan
35331;BME280;21441;52.190;20.910;2022-10-31T08:07:16;64926.59;;;-146.25;nan
35331;BME280;21441;52.190;20.910;2022-10-31T08:09:43;64926.59;;;-146.25;nan
35331;BME280;21441;52.190;20.910;2022-10-31T08:12:09;64926.59;;;-146.25;nan
35331;BME280;21441;52.190;20.910;2022-10-31T08:14:36;64926.59;;;-146.25;nan
35331;BME280;21441;52.190;20.910;2022-10-31T08:17:03;64926.59;;;-146.25;nan
35331;BME280;21441;52.190;20.910;2022-10-31T08:19:30;64926.59;;;-146.25;nan
35331;BME280;21441;52.190;20.910;2022-10-31T08:21:57;64926.59;;;-146.25;nan
35331;BME280;21441;52.190;20.910;2022-10-31T08:24:25;64926.59;;;-146.25;nan
35331;BME280;21441;52.190;20.910;2022-10-31T08:26:52;64926.59;;;-146.25;nan
35331;BME280;21441;52.190;20.910;2022-10-31T08:29:19;64926.59;;;-146.25;nan
35331;BME280;21441;52.190;20.910;2022-10-31T08:31:45;77086.78;;;-146.25;nan
35331;BME280;21441;52.190;20.910;2022-10-31T08:34:12;64926.59;;;-146.25;nan
35331;BME280;21441;52.190;20.910;2022-10-31T08:36:39;64926.59;;;-146.25;nan
35331;BME280;21441;52.190;20.910;2022-10-31T08:39:07;64926.59;;;-146.25;nan
35331;BME280;21441;52.190;20.910;2022-10-31T08:41:35;64926.59;;;-146.25;nan
35331;BME280;21441;52.190;20.910;2022-10-31T08:44:02;64926.59;;;-146.25;nan
35331;BME280;21441;52.190;20.910;2022-10-31T08:46:29;64926.59;;;-146.25;nan
35331;BME280;21441;52.190;20.910;2022-10-31T08:48:57;64926.59;;;-146.25;nan
35331;BME280;21441;52.190;20.910;2022-10-31T08:51:23;64926.59;;;-146.25;nan
35331;BME280;21441;52.190;20.910;2022-10-31T08:53:50;64926.59;;;-146.25;nan
35331;BME280;21441;52.190;20.910;2022-10-31T08:56:17;64926.59;;;-146.25;nan
35331;BME280;21441;52.190;20.910;2022-10-31T08:58:45;64926.59;;;-146.25;nan
35331;BME280;21441;52.190;20.910;2022-10-31T09:01:12;100631.56;;;24.84;nan
35331;BME280;21441;52.190;20.910;2022-10-31T09:03:39;100626.81;;;25.56;nan
35331;BME280;21441;52.190;20.910;2022-10-31T09:06:06;100622.69;;;26.49;nan
35331;BME280;21441;52.190;20.910;2022-10-31T09:08:34;100628.22;;;25.31;nan
35331;BME280;21441;52.190;20.910;2022-10-31T09:11:02;100628.44;;;25.94;nan
35331;BME280;21441;52.190;20.910;2022-10-31T09:13:28;100628.56;;;26.73;nan
35331;BME280;21441;52.190;20.910;2022-10-31T09:15:57;75318.16;;;-144.94;nan
35331;BME280;21441;52.190;20.910;2022-10-31T09:18:24;75297.75;;;-144.94;nan
35331;BME280;21441;52.190;20.910;2022-10-31T09:20:53;75295.72;;;-144.94;nan
35331;BME280;21441;52.190;20.910;2022-10-31T09:23:20;75305.91;;;-144.94;nan
35331;BME280;21441;52.190;20.910;2022-10-31T09:25:48;75222.22;;;-144.94;nan
35331;BME280;21441;52.190;20.910;2022-10-31T09:28:16;75163.00;;;-144.94;nan
35331;BME280;21441;52.190;20.910;2022-10-31T09:30:45;119315.66;;;-144.94;nan
35331;BME280;21441;52.190;20.910;2022-10-31T09:33:14;75297.75;;;-144.94;nan
35331;BME280;21441;52.190;20.910;2022-10-31T09:35:41;100666.38;;;-144.94;nan
35331;BME280;21441;52.190;20.910;2022-10-31T09:38:08;74934.31;;;-144.94;nan
35331;BME280;21441;52.190;20.910;2022-10-31T09:40:39;75013.94;;;-144.94;nan
35331;BME280;21441;52.190;20.910;2022-10-31T09:43:15;118530.00;;;-144.94;nan
35331;BME280;21441;52.190;20.910;2022-10-31T09:50:10;100663.00;;;18.63;64.21
35331;BME280;21441;52.190;20.910;2022-10-31T09:52:39;75961.53;;;-144.94;64.21
35331;BME280;21441;52.190;20.910;2022-10-31T09:55:09;100657.53;;;22.67;47.75
35331;BME280;21441;52.190;20.910;2022-10-31T09:57:41;100669.50;;;21.18;50.39
35331;BME280;21441;52.190;20.910;2022-10-31T10:00:10;64926.59;;;-146.25;100.00
35331;BME280;21441;52.190;20.910;2022-10-31T10:02:44;100631.38;;;29.21;35.96
35331;BME280;21441;52.190;20.910;2022-10-31T10:05:17;100612.72;;;34.17;28.96
35331;BME280;21441;52.190;20.910;2022-10-31T10:07:59;100616.69;;;36.03;26.08
35331;BME280;21441;52.190;20.910;2022-10-31T10:10:35;100604.88;;;37.74;23.95
35331;BME280;21441;52.190;20.910;2022-10-31T10:13:16;100584.66;;;38.63;23.10
35331;BME280;21441;52.190;20.910;2022-10-31T10:16:00;100602.69;;;37.92;23.41
35331;BME280;21441;52.190;20.910;2022-10-31T10:18:38;100590.69;;;38.65;22.77
35331;BME280;21441;52.190;20.910;2022-10-31T10:21:19;100603.56;;;40.02;21.50
35331;BME280;21441;52.190;20.910;2022-10-31T10:24:01;100591.06;;;40.67;21.09
35331;BME280;21441;52.190;20.910;2022-10-31T10:26:34;100595.78;;;40.62;21.23
35331;BME280;21441;52.190;20.910;2022-10-31T10:29:10;100587.84;;;40.84;20.67
35331;BME280;21441;52.190;20.910;2022-10-31T10:31:42;100594.66;;;41.95;19.81
35331;BME280;21441;52.190;20.910;2022-10-31T10:34:18;100596.59;;;43.42;18.72
35331;BME280;21441;52.190;20.910;2022-10-31T10:36:51;100600.66;;;40.14;20.87
35331;BME280;21441;52.190;20.910;2022-10-31T10:39:22;100593.44;;;41.69;20.20
35331;BME280;21441;52.190;20.910;2022-10-31T10:41:50;100587.78;;;42.42;19.35
35331;BME280;21441;52.190;20.910;2022-10-31T10:44:37;100582.31;;;42.83;18.99
35331;BME280;21441;52.190;20.910;2022-10-31T10:47:22;100587.00;;;41.92;19.54
35331;BME280;21441;52.190;20.910;2022-10-31T10:50:09;100583.91;;;41.08;20.26
35331;BME280;21441;52.190;20.910;2022-10-31T10:52:45;100592.84;;;40.94;20.82
35331;BME280;21441;52.190;20.910;2022-10-31T10:55:17;100589.97;;;39.85;21.39
35331;BME280;21441;52.190;20.910;2022-10-31T10:57:55;100578.84;;;39.25;22.29
35331;BME280;21441;52.190;20.910;2022-10-31T11:00:25;100589.06;;;37.53;24.14
35331;BME280;21441;52.190;20.910;2022-10-31T11:02:53;100597.78;;;38.38;22.89
35331;BME280;21441;52.190;20.910;2022-10-31T11:05:23;100587.59;;;39.39;22.19
35331;BME280;21441;52.190;20.910;2022-10-31T11:07:51;100592.38;;;40.53;21.34
35331;BME280;21441;52.190;20.910;2022-10-31T11:10:26;100587.78;;;39.02;22.44
35331;BME280;21441;52.190;20.910;2022-10-31T11:13:21;100574.41;;;38.14;23.44
35331;BME280;21441;52.190;20.910;2022-10-31T11:15:53;100582.13;;;39.14;22.58
35331;BME280;21441;52.190;20.910;2022-10-31T11:18:22;100595.28;;;36.84;24.33
35331;BME280;21441;52.190;20.910;2022-10-31T11:20:52;100588.00;;;38.69;23.33
35331;BME280;21441;52.190;20.910;2022-10-31T11:23:22;100583.56;;;40.00;21.89
35331;BME280;21441;52.190;20.910;2022-10-31T11:25:55;100581.91;;;38.51;22.85
35331;BME280;21441;52.190;20.910;2022-10-31T11:28:23;100587.09;;;39.21;22.32
35331;BME280;21441;52.190;20.910;2022-10-31T11:30:53;100586.63;;;40.46;21.65
35331;BME280;21441;52.190;20.910;2022-10-31T11:33:25;100592.81;;;38.44;23.71
35331;BME280;21441;52.190;20.910;2022-10-31T11:35:53;100587.78;;;37.51;24.58
35331;BME280;21441;52.190;20.910;2022-10-31T11:38:32;100590.91;;;37.49;24.40
35331;BME280;21441;52.190;20.910;2022-10-31T11:41:08;100592.16;;;36.13;26.06
35331;BME280;21441;52.190;20.910;2022-10-31T11:43:36;100599.72;;;36.04;26.17
35331;BME280;21441;52.190;20.910;2022-10-31T11:46:09;100603.06;;;35.07;27.38
35331;BME280;21441;52.190;20.910;2022-10-31T11:48:37;100600.06;;;33.94;28.68
35331;BME280;21441;52.190;20.910;2022-10-31T11:51:05;100596.72;;;34.80;27.86
35331;BME280;21441;52.190;20.910;2022-10-31T11:53:34;100596.22;;;34.96;27.38
35331;BME280;21441;52.190;20.910;2022-10-31T11:56:05;100597.03;;;34.79;27.41
35331;BME280;21441;52.190;20.910;2022-10-31T11:58:32;100591.28;;;34.58;27.87
35331;BME280;21441;52.190;20.910;2022-10-31T12:00:59;100595.78;;;34.27;28.07
35331;BME280;21441;52.190;20.910;2022-10-31T12:03:40;100617.00;;;33.61;29.22
35331;BME280;21441;52.190;20.910;2022-10-31T12:06:12;100608.50;;;32.12;31.16
35331;BME280;21441;52.190;20.910;2022-10-31T12:08:45;100601.81;;;33.81;28.96
35331;BME280;21441;52.190;20.910;2022-10-31T12:11:23;100592.16;;;33.16;30.11
35331;BME280;21441;52.190;20.910;2022-10-31T12:14:06;100606.13;;;32.46;30.62
35331;BME280;21441;52.190;20.910;2022-10-31T12:16:40;100605.00;;;31.13;32.92
35331;BME280;21441;52.190;20.910;2022-10-31T12:19:13;100603.22;;;32.52;30.86
35331;BME280;21441;52.190;20.910;2022-10-31T12:21:55;100605.00;;;31.13;33.03
35331;BME280;21441;52.190;20.910;2022-10-31T12:24:35;100599.53;;;31.45;32.60
35331;BME280;21441;52.190;20.910;2022-10-31T12:27:14;100606.19;;;30.69;33.48
35331;BME280;21441;52.190;20.910;2022-10-31T12:30:01;100604.44;;;29.23;36.22
35331;BME280;21441;52.190;20.910;2022-10-31T12:32:38;100596.03;;;29.73;35.33
35331;BME280;21441;52.190;20.910;2022-10-31T12:35:21;100610.31;;;29.75;35.85
35331;BME280;21441;52.190;20.910;2022-10-31T12:38:00;100602.97;;;30.42;34.66
35331;BME280;21441;52.190;20.910;2022-10-31T12:40:42;100604.00;;;30.22;34.88
35331;BME280;21441;52.190;20.910;2022-10-31T12:43:23;100599.28;;;30.90;34.03
35331;BME280;21441;52.190;20.910;2022-10-31T12:45:56;100593.53;;;30.24;34.87
35331;BME280;21441;52.190;20.910;2022-10-31T12:48:37;100608.03;;;28.14;38.00
35331;BME280;21441;52.190;20.910;2022-10-31T12:51:11;100607.50;;;28.77;37.62
35331;BME280;21441;52.190;20.910;2022-10-31T12:53:51;100604.72;;;29.21;37.09
35331;BME280;21441;52.190;20.910;2022-10-31T12:56:35;100613.41;;;28.94;37.14
35331;BME280;21441;52.190;20.910;2022-10-31T12:59:08;100611.63;;;29.82;35.53
35331;BME280;21441;52.190;20.910;2022-10-31T13:01:38;100618.66;;;28.26;37.90
35331;BME280;21441;52.190;20.910;2022-10-31T13:04:10;100617.13;;;26.96;40.78